Time;durP1;ratioP1;P1;durP2;ratioP2;P2;SDS_P1;SDS_P2;PMS_P1;PMS_P2;Temp;Humidity;BMP_temperature;BMP_pressure;BME280_temperature;BME280_humidity;BME280_pressure;Samples;Min_cycle;Max_cycle;Signal;HPM_P1;HPM_P2
2023/01/29 00:01:23;;;;;;;;;;;;;;;28.58;19.99;100880.94;5077336;28;1308;-36
2023/01/29 00:03:51;;;;;;;;;;;;;;;28.65;20.16;100888.28;5076308;28;1111;-36
2023/01/29 00:06:17;;;;;;;;;;;;;;;28.70;20.14;100886.69;5076382;28;1063;-31
2023/01/29 00:08:42;;;;;;;;;;;;;;;25.95;20.12;100886.03;5076745;28;1234;-37
2023/01/29 00:11:07;;;;;;;;;;;;;;;25.53;21.99;100883.38;5076574;28;1167;-36
2023/01/29 00:13:35;;;;;;;;;;;;;;;28.09;20.38;100893.19;5076858;28;1095;-37
2023/01/29 00:16:01;;;;;;;;;;;;;;;27.25;21.42;100887.66;5076334;28;1051;-35
2023/01/29 00:18:27;;;;;;;;;;;;;;;27.00;22.01;100894.06;5076600;28;1969;-34
2023/01/29 00:20:52;;;;;;;;;;;;;;;26.60;22.04;100891.41;5076638;28;1182;-34
2023/01/29 00:23:18;;;;;;;;;;;;;;;26.43;22.54;100884.38;5076398;28;1127;-35
2023/01/29 00:25:43;;;;;;;;;;;;;;;27.67;21.13;100895.41;5076331;28;1114;-34
2023/01/29 00:28:08;;;;;;;;;;;;;;;27.31;21.47;100900.44;5073915;28;1126;-37
2023/01/29 00:30:34;;;;;;;;;;;;;;;26.85;22.04;100901.22;5047583;28;1134;-36
2023/01/29 00:32:59;;;;;;;;;;;;;;;26.65;22.38;100904.38;5075944;28;1039;-37
2023/01/29 00:35:25;;;;;;;;;;;;;;;26.04;23.03;100893.09;5076259;28;1055;-37
2023/01/29 00:37:50;;;;;;;;;;;;;;;25.90;23.37;100900.03;5076340;28;1926;-37
2023/01/29 00:40:15;;;;;;;;;;;;;;;25.88;23.13;100902.06;5075930;28;1052;-37
2023/01/29 00:45:26;;;;;;;;;;;;;;;26.85;22.04;100893.13;5076097;28;1036;-35
2023/01/29 00:47:52;;;;;;;;;;;;;;;26.81;22.48;100895.34;5075934;28;1095;-37
2023/01/29 00:50:17;;;;;;;;;;;;;;;25.63;23.43;100894.00;5076097;28;1147;-34
2023/01/29 00:52:42;;;;;;;;;;;;;;;25.46;23.98;100895.81;5075225;28;1083;-38
2023/01/29 00:55:08;;;;;;;;;;;;;;;26.33;23.09;100893.53;5076389;28;1079;-36
2023/01/29 00:57:34;;;;;;;;;;;;;;;26.47;22.87;100897.38;5075861;28;1902;-34
2023/01/29 00:59:59;;;;;;;;;;;;;;;26.67;22.32;100890.69;5075883;28;1079;-35
2023/01/29 01:05:12;;;;;;;;;;;;;;;26.74;22.19;100888.97;5075745;28;1008;-35
2023/01/29 01:07:38;;;;;;;;;;;;;;;25.71;23.69;100897.72;5062935;28;1104;-39
2023/01/29 01:10:23;;;;;;;;;;;;;;;25.73;23.65;100891.13;5076115;28;1043;-37
2023/01/29 01:12:57;;;;;;;;;;;;;;;26.48;22.89;100888.25;5064731;28;1028;-36
2023/01/29 01:15:23;;;;;;;;;;;;;;;26.57;22.75;100890.91;5075736;28;1076;-37
2023/01/29 01:17:52;;;;;;;;;;;;;;;26.77;22.50;100897.56;5075762;28;1898;-37
2023/01/29 01:20:18;;;;;;;;;;;;;;;26.83;22.36;100892.47;5078969;28;1195;-36
2023/01/29 01:22:43;;;;;;;;;;;;;;;26.69;22.16;100888.66;5079617;28;1113;-36
2023/01/29 01:25:08;;;;;;;;;;;;;;;25.67;23.61;100894.50;5079949;28;1126;-35
2023/01/29 01:27:36;;;;;;;;;;;;;;;26.24;23.28;100895.38;5080203;28;1083;-36
2023/01/29 01:30:01;;;;;;;;;;;;;;;26.51;22.61;100896.00;5069680;28;1203;-35
2023/01/29 01:32:27;;;;;;;;;;;;;;;26.60;22.36;100901.34;5079619;28;1031;-35
2023/01/29 01:34:52;;;;;;;;;;;;;;;27.08;22.07;100900.44;5079590;28;1097;-32
2023/01/29 01:37:18;;;;;;;;;;;;;;;26.86;22.02;100911.84;5079685;28;1964;-32
2023/01/29 01:39:47;;;;;;;;;;;;;;;26.58;22.09;100903.38;5079664;28;1202;-35
2023/01/29 01:42:13;;;;;;;;;;;;;;;25.36;23.84;100905.94;5079171;28;913;-37
2023/01/29 01:44:50;;;;;;;;;;;;;;;26.03;23.27;100912.97;5079238;28;1084;-33
2023/01/29 01:47:15;;;;;;;;;;;;;;;26.29;22.77;100908.38;5079379;28;1043;-32
2023/01/29 01:49:41;;;;;;;;;;;;;;;26.48;22.40;100917.06;5061323;28;1212;-34
2023/01/29 01:52:06;;;;;;;;;;;;;;;26.70;22.16;100912.78;5061596;28;1064;-35
2023/01/29 01:54:31;;;;;;;;;;;;;;;26.77;22.05;100927.25;5078423;28;1020;-32
2023/01/29 01:57:08;;;;;;;;;;;;;;;26.56;22.37;100913.53;5079198;28;1987;-34
2023/01/29 01:59:34;;;;;;;;;;;;;;;25.31;23.83;100926.09;5072245;28;928;-34
2023/01/29 02:10:12;;;;;;;;;;;;;;;26.91;22.06;100941.00;5078814;28;1028;-35
2023/01/29 02:12:38;;;;;;;;;;;;;;;26.73;22.21;100938.56;5054010;28;1182;-37
2023/01/29 02:15:03;;;;;;;;;;;;;;;26.14;22.80;100943.28;5055172;28;1083;-32
2023/01/29 02:17:29;;;;;;;;;;;;;;;25.27;24.32;100942.75;5078628;28;1898;-34
2023/01/29 02:19:57;;;;;;;;;;;;;;;26.31;22.99;100935.97;5060989;28;1076;-37
2023/01/29 02:22:28;;;;;;;;;;;;;;;26.46;22.57;100938.84;5078811;28;1154;-34
2023/01/29 02:25:16;;;;;;;;;;;;;;;26.60;22.39;100936.44;5078438;28;1104;-32
2023/01/29 02:27:44;;;;;;;;;;;;;;;27.12;22.04;100931.47;5078524;28;1425;-35
2023/01/29 02:30:21;;;;;;;;;;;;;;;26.71;22.05;100925.25;5072539;28;1151;-31
2023/01/29 02:32:57;;;;;;;;;;;;;;;26.17;22.92;100924.06;5078484;28;1087;-36
2023/01/29 02:35:33;;;;;;;;;;;;;;;25.27;24.09;100913.16;5078684;28;1129;-35
2023/01/29 02:37:59;;;;;;;;;;;;;;;26.30;22.87;100904.66;5060781;28;1894;-35
2023/01/29 02:40:24;;;;;;;;;;;;;;;26.43;22.78;100889.78;5078129;28;1123;-36
2023/01/29 02:42:51;;;;;;;;;;;;;;;26.62;22.51;100886.69;5078168;28;1125;-36
2023/01/29 02:45:33;;;;;;;;;;;;;;;26.73;22.10;100882.75;5060764;28;1171;-36
2023/01/29 02:47:59;;;;;;;;;;;;;;;26.61;22.12;100878.78;5060582;28;1127;-35
2023/01/29 02:50:32;;;;;;;;;;;;;;;25.82;23.21;100875.78;5078498;28;1131;-31
2023/01/29 02:53:08;;;;;;;;;;;;;;;25.17;24.01;100881.00;5065225;28;1088;-34
2023/01/29 02:55:52;;;;;;;;;;;;;;;26.16;22.58;100890.00;5054658;28;1071;-36
2023/01/29 02:58:17;;;;;;;;;;;;;;;26.43;22.44;100887.94;5077886;28;1898;-35
2023/01/29 03:00:43;;;;;;;;;;;;;;;26.53;22.15;100885.03;5077866;28;1138;-33
2023/01/29 03:03:29;;;;;;;;;;;;;;;26.85;21.73;100890.44;5060192;28;1133;-34
2023/01/29 03:06:05;;;;;;;;;;;;;;;26.68;21.65;100890.53;5076404;28;1113;-35
2023/01/29 03:08:41;;;;;;;;;;;;;;;25.61;23.22;100889.78;5060804;28;1119;-33
2023/01/29 03:11:07;;;;;;;;;;;;;;;25.75;23.18;100885.56;5060397;28;986;-34
2023/01/29 03:13:37;;;;;;;;;;;;;;;26.32;22.27;100889.13;5059906;28;1052;-35
2023/01/29 03:16:13;;;;;;;;;;;;;;;26.46;22.13;100881.38;5077604;28;1035;-34
2023/01/29 03:18:58;;;;;;;;;;;;;;;27.12;21.29;100883.72;5077564;28;1898;-36
2023/01/29 03:32:23;;;;;;;;;;;;;;;26.31;21.95;100887.44;5062188;28;1060;-37
2023/01/29 03:34:50;;;;;;;;;;;;;;;26.43;21.85;100881.69;5059682;28;1025;-34
2023/01/29 03:37:34;;;;;;;;;;;;;;;26.99;21.12;100881.56;5059923;28;1973;-36
2023/01/29 03:40:01;;;;;;;;;;;;;;;26.60;21.28;100887.84;5077345;28;1079;-37
2023/01/29 03:42:46;;;;;;;;;;;;;;;26.10;21.46;100893.41;5075747;28;1121;-35
2023/01/29 03:45:47;;;;;;;;;;;;;;;24.97;23.52;100888.53;5036153;28;1318;-35
2023/01/29 03:48:17;;;;;;;;;;;;;;;26.10;22.16;100893.41;4976362;28;1093;-37
2023/01/29 03:51:06;;;;;;;;;;;;;;;26.38;21.88;100901.09;5045476;28;1242;-36
2023/01/29 03:53:49;;;;;;;;;;;;;;;26.70;21.13;100903.84;5058885;28;1045;-35
2023/01/29 03:56:17;;;;;;;;;;;;;;;26.76;21.24;100903.13;5059447;28;1032;-35
2023/01/29 03:58:47;;;;;;;;;;;;;;;26.65;21.29;100909.75;5076653;28;1914;-33
2023/01/29 04:01:47;;;;;;;;;;;;;;;26.07;21.86;100908.09;5046371;28;1157;-34
2023/01/29 04:04:31;;;;;;;;;;;;;;;25.50;22.89;100916.03;5033609;28;1258;-37
2023/01/29 04:07:03;;;;;;;;;;;;;;;26.43;21.67;100914.06;5075953;28;1028;-33
2023/01/29 04:09:52;;;;;;;;;;;;;;;26.33;21.89;100920.50;5058852;28;1422;-36
2023/01/29 04:12:22;;;;;;;;;;;;;;;26.53;21.41;100922.78;5065040;28;1160;-35
2023/01/29 04:14:47;;;;;;;;;;;;;;;26.61;21.19;100925.47;5058915;28;1140;-34
2023/01/29 04:17:18;;;;;;;;;;;;;;;26.53;21.10;100929.03;5058950;28;1973;-34
2023/01/29 04:19:43;;;;;;;;;;;;;;;25.25;23.07;100928.63;5058906;28;888;-33
2023/01/29 04:22:11;;;;;;;;;;;;;;;25.95;22.41;100947.19;5076030;28;1267;-35
2023/01/29 04:24:37;;;;;;;;;;;;;;;26.28;22.20;100936.34;5075756;28;1075;-36
2023/01/29 04:27:16;;;;;;;;;;;;;;;26.62;21.54;100945.19;5058003;28;1093;-34
2023/01/29 04:29:56;;;;;;;;;;;;;;;26.71;21.49;100954.94;5057404;28;2852;-35
2023/01/29 04:32:31;;;;;;;;;;;;;;;26.85;21.20;100955.19;5048986;28;979;-32
2023/01/29 04:35:00;;;;;;;;;;;;;;;26.52;21.52;100965.13;5057633;28;1044;-36
2023/01/29 04:37:32;;;;;;;;;;;;;;;25.63;22.37;100974.81;5057769;28;1902;-37
2023/01/29 04:40:10;;;;;;;;;;;;;;;25.41;22.90;100971.72;5058110;28;941;-36
2023/01/29 04:42:39;;;;;;;;;;;;;;;26.88;21.09;100977.28;5075423;28;1019;-37
2023/01/29 04:45:28;;;;;;;;;;;;;;;23.92;19.30;100978.03;5076032;28;1040;-33
2023/01/29 04:47:56;;;;;;;;;;;;;;;22.59;20.21;100961.31;5064234;28;1637;-32
2023/01/29 04:50:26;;;;;;;;;;;;;;;22.74;21.17;100977.81;5075779;28;1070;-36
2023/01/29 04:53:10;;;;;;;;;;;;;;;22.14;20.36;100981.59;5057780;28;1028;-30
2023/01/29 04:55:43;;;;;;;;;;;;;;;23.46;21.71;100986.19;5075733;28;857;-35
2023/01/29 04:58:13;;;;;;;;;;;;;;;25.03;20.37;100995.53;5057709;28;2385;-33
2023/01/29 05:00:39;;;;;;;;;;;;;;;25.69;20.05;100986.78;5057813;28;1250;-30
2023/01/29 05:03:05;;;;;;;;;;;;;;;26.10;19.44;100985.06;5075850;28;1058;-33
2023/01/29 05:05:30;;;;;;;;;;;;;;;25.71;19.15;100992.81;5057621;28;1044;-34
2023/01/29 05:07:56;;;;;;;;;;;;;;;25.37;19.16;100989.25;5075441;28;1039;-30
2023/01/29 05:10:21;;;;;;;;;;;;;;;25.39;18.88;100989.91;5075630;28;1032;-35
2023/01/29 05:12:47;;;;;;;;;;;;;;;25.55;18.30;100994.50;5057618;28;1055;-31
2023/01/29 05:15:13;;;;;;;;;;;;;;;25.43;18.17;101002.03;5057537;28;1075;-31
2023/01/29 05:17:39;;;;;;;;;;;;;;;25.72;17.38;101004.47;5057983;28;1895;-34
2023/01/29 05:20:04;;;;;;;;;;;;;;;25.63;16.38;101006.28;5057193;28;858;-33
2023/01/29 05:22:30;;;;;;;;;;;;;;;24.02;16.83;100982.47;5057430;28;1067;-29
2023/01/29 05:24:55;;;;;;;;;;;;;;;24.85;16.59;100991.06;5057478;28;1113;-34
2023/01/29 05:30:06;;;;;;;;;;;;;;;25.99;16.54;100987.09;5074911;28;2619;-33
2023/01/29 05:32:31;;;;;;;;;;;;;;;26.19;16.99;100994.84;5074981;28;877;-31
2023/01/29 05:34:56;;;;;;;;;;;;;;;26.31;17.40;100984.53;5074977;28;1146;-31
2023/01/29 05:37:22;;;;;;;;;;;;;;;26.48;17.86;100993.47;5075436;28;1905;-34
2023/01/29 05:39:47;;;;;;;;;;;;;;;26.85;17.94;100993.84;5074973;28;1023;-33
2023/01/29 05:42:12;;;;;;;;;;;;;;;25.00;18.64;100993.16;5075617;28;1084;-34
2023/01/29 05:44:37;;;;;;;;;;;;;;;23.82;19.55;100994.22;5074736;28;936;-35
2023/01/29 05:47:03;;;;;;;;;;;;;;;23.44;20.15;101002.44;5075103;28;1000;-36
2023/01/29 05:49:28;;;;;;;;;;;;;;;23.11;20.13;100999.38;5074619;28;1036;-34
2023/01/29 05:51:53;;;;;;;;;;;;;;;22.90;20.12;101008.53;5075403;28;1052;-33
2023/01/29 05:54:19;;;;;;;;;;;;;;;23.10;20.13;101014.66;5075011;28;1068;-35
2023/01/29 05:56:44;;;;;;;;;;;;;;;22.94;19.80;101022.50;5074754;28;1080;-33
2023/01/29 05:59:09;;;;;;;;;;;;;;;24.47;18.89;101020.97;5074949;28;1909;-32
2023/01/29 06:01:34;;;;;;;;;;;;;;;25.28;18.67;101023.38;5075217;28;1197;-31
2023/01/29 06:04:00;;;;;;;;;;;;;;;25.62;19.19;101040.47;5075096;28;1138;-32
2023/01/29 06:06:25;;;;;;;;;;;;;;;25.99;18.92;101050.97;5077984;28;1039;-32
2023/01/29 06:08:51;;;;;;;;;;;;;;;26.08;19.25;101049.94;5078002;28;1075;-34
2023/01/29 06:11:17;;;;;;;;;;;;;;;26.35;19.08;101056.03;5060522;28;1281;-33
2023/01/29 06:13:42;;;;;;;;;;;;;;;26.63;18.85;101065.59;5078417;28;1082;-35
2023/01/29 06:16:08;;;;;;;;;;;;;;;26.82;18.65;101052.72;5078417;28;1143;-31
2023/01/29 06:18:34;;;;;;;;;;;;;;;26.44;18.93;101067.66;5078218;28;1953;-34
2023/01/29 06:21:01;;;;;;;;;;;;;;;25.22;20.89;101064.41;5069027;28;971;-31
2023/01/29 06:23:26;;;;;;;;;;;;;;;26.95;19.17;101065.66;5060801;28;1051;-33
2023/01/29 06:25:51;;;;;;;;;;;;;;;25.42;20.62;101070.34;5078502;28;1083;-31
2023/01/29 06:28:16;;;;;;;;;;;;;;;25.07;21.30;101058.81;5078029;28;1820;-31
2023/01/29 06:30:42;;;;;;;;;;;;;;;26.24;20.03;101073.34;5078356;28;1079;-32
2023/01/29 06:33:07;;;;;;;;;;;;;;;26.68;19.96;101074.00;5075189;28;1005;-30
2023/01/29 06:35:32;;;;;;;;;;;;;;;27.82;18.90;101084.69;5078842;28;1118;-32
2023/01/29 06:37:58;;;;;;;;;;;;;;;27.49;18.84;101070.34;5078055;28;1894;-33
2023/01/29 06:40:23;;;;;;;;;;;;;;;26.94;19.67;101083.75;5078855;28;1063;-31
2023/01/29 06:42:48;;;;;;;;;;;;;;;26.95;19.60;101082.72;5078044;28;1068;-31
2023/01/29 06:45:13;;;;;;;;;;;;;;;27.04;19.80;101088.97;5078254;28;1052;-32
2023/01/29 06:47:39;;;;;;;;;;;;;;;27.20;20.05;101096.16;5078099;28;1011;-31
2023/01/29 06:50:04;;;;;;;;;;;;;;;27.45;19.54;101103.28;5078541;28;1059;-30
2023/01/29 06:52:30;;;;;;;;;;;;;;;27.58;19.65;101079.25;5077985;28;1067;-31
2023/01/29 06:54:55;;;;;;;;;;;;;;;27.73;19.37;101078.50;5078159;28;1032;-30
2023/01/29 06:57:20;;;;;;;;;;;;;;;27.91;19.30;101083.59;5077861;28;2011;-30
2023/01/29 06:59:46;;;;;;;;;;;;;;;28.00;19.29;101089.81;5077994;28;1209;-31
2023/01/29 07:02:11;;;;;;;;;;;;;;;28.14;19.40;101073.81;5077927;28;1048;-31
2023/01/29 07:04:36;;;;;;;;;;;;;;;28.20;19.46;101098.28;5078168;28;1151;-31
2023/01/29 07:07:02;;;;;;;;;;;;;;;28.32;19.21;101093.28;5077646;28;1205;-31
2023/01/29 07:09:27;;;;;;;;;;;;;;;28.43;19.05;101086.59;5077872;28;1040;-30
2023/01/29 07:11:52;;;;;;;;;;;;;;;28.51;18.99;101096.47;5077772;28;1438;-31
2023/01/29 07:14:17;;;;;;;;;;;;;;;28.61;19.18;101077.31;5078179;28;1019;-32
2023/01/29 07:16:43;;;;;;;;;;;;;;;28.58;19.22;101080.34;5078007;28;1130;-30
2023/01/29 07:19:08;;;;;;;;;;;;;;;28.58;18.99;101077.66;5076737;28;1901;-34
2023/01/29 07:21:33;;;;;;;;;;;;;;;28.68;19.12;101082.78;5077993;28;1056;-33
2023/01/29 07:23:59;;;;;;;;;;;;;;;29.49;18.32;101085.75;5077637;28;1143;-33
2023/01/29 07:26:24;;;;;;;;;;;;;;;28.73;18.96;101083.91;5077656;28;1059;-35
2023/01/29 07:28:49;;;;;;;;;;;;;;;27.58;20.04;101087.34;5078119;28;1079;-37
2023/01/29 07:31:14;;;;;;;;;;;;;;;28.87;19.07;101091.38;5075822;28;1043;-31
2023/01/29 07:33:41;;;;;;;;;;;;;;;28.85;19.07;101100.56;5068564;28;1126;-35
2023/01/29 07:36:07;;;;;;;;;;;;;;;27.82;19.93;101092.81;5076915;28;1040;-33
2023/01/29 07:38:32;;;;;;;;;;;;;;;28.45;19.81;101091.81;5077383;28;1913;-33
2023/01/29 07:40:58;;;;;;;;;;;;;;;28.32;19.74;101101.38;5076998;28;1035;-34
2023/01/29 07:43:23;;;;;;;;;;;;;;;28.16;19.88;101107.75;5077342;28;1115;-31
2023/01/29 07:45:49;;;;;;;;;;;;;;;28.11;20.09;101108.31;5076973;28;1043;-33
2023/01/29 07:48:14;;;;;;;;;;;;;;;28.44;19.69;101109.09;5077049;28;1122;-33
2023/01/29 07:50:39;;;;;;;;;;;;;;;28.52;19.85;101130.66;5077303;28;1174;-33
2023/01/29 07:53:05;;;;;;;;;;;;;;;28.85;19.17;101113.25;5076894;28;1017;-36
2023/01/29 07:55:30;;;;;;;;;;;;;;;29.06;19.21;101128.75;5076632;28;1047;-30
2023/01/29 07:57:59;;;;;;;;;;;;;;;29.08;19.11;101115.88;5076757;28;1918;-32
2023/01/29 08:00:24;;;;;;;;;;;;;;;29.01;19.00;101139.31;5076242;28;1094;-32
2023/01/29 08:02:50;;;;;;;;;;;;;;;27.65;20.79;101133.41;5070053;28;1079;-36
2023/01/29 08:05:15;;;;;;;;;;;;;;;28.80;19.85;101131.91;5070530;28;1132;-31
2023/01/29 08:07:40;;;;;;;;;;;;;;;29.32;18.94;101137.44;5076390;28;1186;-33
2023/01/29 08:10:06;;;;;;;;;;;;;;;28.98;19.62;101128.03;5076460;28;1007;-36
2023/01/29 08:12:31;;;;;;;;;;;;;;;29.03;19.76;101131.84;5076963;28;1139;-38
2023/01/29 08:14:56;;;;;;;;;;;;;;;28.43;19.80;101139.84;5076472;28;1106;-37
2023/01/29 08:17:21;;;;;;;;;;;;;;;28.37;18.63;101149.56;5076448;28;1910;-33
2023/01/29 08:19:47;;;;;;;;;;;;;;;26.80;20.58;101141.97;5076494;28;1190;-34
2023/01/29 08:22:14;;;;;;;;;;;;;;;27.42;19.87;101142.31;5076379;28;1211;-32
2023/01/29 08:24:39;;;;;;;;;;;;;;;29.05;18.19;101158.75;5076563;28;1127;-32
2023/01/29 08:27:04;;;;;;;;;;;;;;;28.99;18.39;101143.25;5076837;28;1138;-34
2023/01/29 08:29:30;;;;;;;;;;;;;;;29.02;18.21;101157.28;5075992;28;1143;-35
2023/01/29 08:31:55;;;;;;;;;;;;;;;28.45;18.81;101151.34;5073737;28;1027;-33
2023/01/29 08:34:20;;;;;;;;;;;;;;;28.50;19.09;101150.78;5075538;28;1136;-32
2023/01/29 08:36:46;;;;;;;;;;;;;;;28.56;19.06;101148.19;5076280;28;1258;-36
2023/01/29 08:39:11;;;;;;;;;;;;;;;29.26;18.28;101146.34;5076285;28;1898;-33
2023/01/29 08:41:37;;;;;;;;;;;;;;;29.22;18.19;101151.28;5076894;28;1109;-31
2023/01/29 08:44:03;;;;;;;;;;;;;;;29.36;18.18;101154.16;5075609;28;1063;-31
2023/01/29 08:46:28;;;;;;;;;;;;;;;29.16;18.39;101149.34;5075928;28;1137;-32
2023/01/29 08:48:54;;;;;;;;;;;;;;;28.08;19.61;101149.25;5076019;28;1103;-31
2023/01/29 08:51:19;;;;;;;;;;;;;;;28.72;19.18;101147.22;5058714;28;1107;-36
2023/01/29 08:53:44;;;;;;;;;;;;;;;28.58;19.20;101148.88;5076330;28;1064;-31
2023/01/29 08:56:10;;;;;;;;;;;;;;;27.29;20.48;101151.00;5075887;28;1115;-32
2023/01/29 08:58:35;;;;;;;;;;;;;;;28.35;19.41;101146.19;5075886;28;2010;-33
2023/01/29 09:01:12;;;;;;;;;;;;;;;28.15;19.97;101141.25;5076155;28;1202;-34
2023/01/29 09:03:39;;;;;;;;;;;;;;;28.07;19.85;101142.16;5076017;28;1048;-35
2023/01/29 09:06:05;;;;;;;;;;;;;;;28.68;19.38;101147.75;5076301;28;1027;-32
2023/01/29 09:08:30;;;;;;;;;;;;;;;28.40;19.69;101151.06;5071399;28;1155;-32
2023/01/29 09:10:57;;;;;;;;;;;;;;;27.91;19.62;101150.38;5076121;28;1138;-32
2023/01/29 09:13:22;;;;;;;;;;;;;;;28.54;19.33;101152.13;5075930;28;1048;-35
2023/01/29 09:15:48;;;;;;;;;;;;;;;28.66;19.11;101156.06;5076223;28;1397;-34
2023/01/29 09:18:13;;;;;;;;;;;;;;;29.04;18.67;101157.94;5075885;28;1965;-33
2023/01/29 09:20:38;;;;;;;;;;;;;;;28.07;19.87;101155.69;5069831;28;1206;-32
2023/01/29 09:23:04;;;;;;;;;;;;;;;28.08;20.17;101153.78;5069374;28;1088;-32
2023/01/29 09:25:30;;;;;;;;;;;;;;;29.27;18.69;101156.97;5076089;28;1194;-34
2023/01/29 09:27:55;;;;;;;;;;;;;;;29.19;18.79;101154.38;5075615;28;1174;-37
2023/01/29 09:30:20;;;;;;;;;;;;;;;29.23;18.80;101154.84;5075809;28;1067;-33
2023/01/29 09:32:46;;;;;;;;;;;;;;;28.85;19.39;101154.69;5074863;28;1087;-37
2023/01/29 09:35:11;;;;;;;;;;;;;;;28.58;19.54;101150.72;5075873;28;1058;-34
2023/01/29 09:37:36;;;;;;;;;;;;;;;28.26;19.80;101158.91;5075637;28;1886;-36
2023/01/29 09:40:02;;;;;;;;;;;;;;;27.28;21.08;101143.06;5063229;28;1126;-34
2023/01/29 09:42:47;;;;;;;;;;;;;;;29.14;19.32;101151.38;5079563;28;1031;-35
2023/01/29 09:45:25;;;;;;;;;;;;;;;28.62;19.71;101135.81;5051052;28;1065;-31
2023/01/29 09:47:50;;;;;;;;;;;;;;;28.72;19.81;101136.41;5079274;28;1023;-36
2023/01/29 09:50:21;;;;;;;;;;;;;;;28.58;19.82;101138.03;5079907;28;1087;-33
2023/01/29 09:52:49;;;;;;;;;;;;;;;28.63;19.89;101140.19;5061373;28;1075;-33
2023/01/29 09:55:25;;;;;;;;;;;;;;;28.46;19.80;101131.41;5079606;28;1141;-32
2023/01/29 09:57:50;;;;;;;;;;;;;;;27.47;21.40;101139.94;5078799;28;1905;-34
2023/01/29 10:00:36;;;;;;;;;;;;;;;29.13;19.43;101144.28;5079306;28;1171;-32
2023/01/29 10:03:04;;;;;;;;;;;;;;;29.93;18.36;101146.28;5067381;28;1463;-36
2023/01/29 10:05:38;;;;;;;;;;;;;;;28.57;19.96;101133.66;5079262;28;1120;-35
2023/01/29 10:08:08;;;;;;;;;;;;;;;27.18;20.72;101146.78;5078955;28;1219;-36
2023/01/29 10:10:52;;;;;;;;;;;;;;;28.21;20.44;101143.22;5059011;28;1319;-32
2023/01/29 10:13:28;;;;;;;;;;;;;;;27.92;20.33;101136.69;5075534;28;1168;-33
2023/01/29 10:16:12;;;;;;;;;;;;;;;28.63;19.20;101128.53;5052923;28;1149;-32
2023/01/29 10:18:47;;;;;;;;;;;;;;;28.73;18.58;101132.66;5058894;28;1965;-34
2023/01/29 10:21:15;;;;;;;;;;;;;;;28.40;19.35;101121.28;5070606;28;1147;-34
2023/01/29 10:23:42;;;;;;;;;;;;;;;28.45;19.53;101130.56;5078743;28;1020;-35
2023/01/29 10:26:09;;;;;;;;;;;;;;;28.64;19.37;101131.06;5065648;28;1039;-35
2023/01/29 10:28:45;;;;;;;;;;;;;;;28.96;18.96;101134.44;5060346;28;1103;-34
2023/01/29 10:31:20;;;;;;;;;;;;;;;29.31;18.84;101117.63;5078269;28;1004;-35
2023/01/29 10:33:55;;;;;;;;;;;;;;;29.09;19.12;101124.88;5078548;28;1142;-33
2023/01/29 10:36:34;;;;;;;;;;;;;;;28.02;19.95;101124.78;5057797;28;989;-37
2023/01/29 10:39:00;;;;;;;;;;;;;;;28.80;19.57;101131.91;5060582;28;1960;-34
2023/01/29 10:41:43;;;;;;;;;;;;;;;27.59;17.21;101124.16;5078503;28;1126;-33
2023/01/29 10:44:24;;;;;;;;;;;;;;;28.30;18.85;101129.63;5064808;28;1252;-31
2023/01/29 10:47:12;;;;;;;;;;;;;;;29.23;17.58;101123.16;5070748;28;931;-34
2023/01/29 10:49:38;;;;;;;;;;;;;;;27.97;18.69;101120.75;5029518;28;1288;-38
2023/01/29 10:52:06;;;;;;;;;;;;;;;28.21;18.80;101112.66;5053194;28;1130;-35
2023/01/29 10:54:34;;;;;;;;;;;;;;;28.39;18.68;101112.34;5076982;28;1136;-36
2023/01/29 10:57:12;;;;;;;;;;;;;;;28.57;18.79;101111.16;5066584;28;1247;-33
2023/01/29 10:59:43;;;;;;;;;;;;;;;29.07;18.43;101113.38;5058245;28;1906;-32
2023/01/29 11:02:11;;;;;;;;;;;;;;;28.92;18.66;101121.47;5072775;28;1227;-35
2023/01/29 11:04:38;;;;;;;;;;;;;;;28.57;16.93;101116.56;5077893;28;1198;-33
2023/01/29 11:07:03;;;;;;;;;;;;;;;23.76;18.02;101104.13;5058555;28;1111;-34
2023/01/29 11:09:33;;;;;;;;;;;;;;;24.33;20.76;101111.09;5056717;28;1039;-38
2023/01/29 11:11:59;;;;;;;;;;;;;;;27.82;17.78;101109.88;5053370;28;1044;-37
2023/01/29 11:14:45;;;;;;;;;;;;;;;29.01;16.71;101112.22;5045861;28;1013;-36
2023/01/29 11:17:17;;;;;;;;;;;;;;;26.64;19.41;101115.84;5075611;28;1364;-37
2023/01/29 11:19:43;;;;;;;;;;;;;;;26.46;18.96;101130.34;5066410;28;1012;-37
2023/01/29 11:22:15;;;;;;;;;;;;;;;28.17;16.98;101127.53;5057224;28;1041;-35
2023/01/29 11:24:41;;;;;;;;;;;;;;;28.78;16.41;101128.56;5057675;28;1127;-37
2023/01/29 11:27:13;;;;;;;;;;;;;;;28.71;15.83;101137.41;5062993;28;1016;-36
2023/01/29 11:29:41;;;;;;;;;;;;;;;27.69;16.66;101133.94;5065374;28;1126;-34
2023/01/29 11:32:27;;;;;;;;;;;;;;;28.31;15.18;101101.56;5076730;28;1051;-34
2023/01/29 11:35:04;;;;;;;;;;;;;;;27.61;16.00;101110.50;5076225;28;1034;-36
2023/01/29 11:37:39;;;;;;;;;;;;;;;28.10;15.72;101113.91;5057046;28;1894;-33
2023/01/29 11:40:17;;;;;;;;;;;;;;;28.33;15.40;101119.31;5070803;28;1175;-33
2023/01/29 11:42:42;;;;;;;;;;;;;;;28.69;15.47;101115.13;5069274;28;1057;-34
2023/01/29 11:45:23;;;;;;;;;;;;;;;28.78;15.76;101118.56;5059155;28;1079;-37
2023/01/29 11:47:49;;;;;;;;;;;;;;;29.30;15.21;101113.25;5050134;28;1115;-37
2023/01/29 11:50:22;;;;;;;;;;;;;;;28.88;15.54;101117.47;5057520;28;1028;-35
2023/01/29 11:52:47;;;;;;;;;;;;;;;27.42;17.43;101112.59;5067136;28;1121;-36
2023/01/29 11:55:25;;;;;;;;;;;;;;;28.90;16.10;101107.25;5057583;28;1187;-35
2023/01/29 11:57:53;;;;;;;;;;;;;;;29.59;15.56;101108.00;5028779;28;1906;-32
2023/01/29 12:00:21;;;;;;;;;;;;;;;29.58;15.59;101115.25;5036825;28;1155;-35
2023/01/29 12:02:53;;;;;;;;;;;;;;;29.56;15.91;101111.88;5025095;28;1006;-37
2023/01/29 12:05:20;;;;;;;;;;;;;;;29.00;16.46;101105.16;5043174;28;1139;-36
2023/01/29 12:07:47;;;;;;;;;;;;;;;28.30;17.37;101105.28;5031295;28;1215;-34
2023/01/29 12:10:28;;;;;;;;;;;;;;;27.61;18.06;101110.50;5027608;28;1093;-33
2023/01/29 12:13:02;;;;;;;;;;;;;;;28.66;17.26;101115.47;5056692;28;1122;-35
2023/01/29 12:15:27;;;;;;;;;;;;;;;29.03;17.01;101104.78;5038949;28;1139;-31
2023/01/29 12:18:22;;;;;;;;;;;;;;;28.59;17.50;101104.53;5045780;28;1898;-33
2023/01/29 12:20:51;;;;;;;;;;;;;;;28.54;17.54;101106.97;5027760;28;1642;-33
2023/01/29 12:23:29;;;;;;;;;;;;;;;28.44;17.79;101104.53;5025741;28;926;-34
2023/01/29 12:25:55;;;;;;;;;;;;;;;28.91;17.42;101119.78;5045979;28;1016;-35
2023/01/29 12:28:29;;;;;;;;;;;;;;;28.07;17.18;101116.97;5036800;28;1076;-33
2023/01/29 12:31:00;;;;;;;;;;;;;;;24.92;17.48;101113.22;5030634;28;1145;-36
2023/01/29 12:33:28;;;;;;;;;;;;;;;23.20;19.09;101108.53;5056224;28;1059;-35
2023/01/29 12:35:55;;;;;;;;;;;;;;;22.50;19.57;101110.47;5031298;28;1058;-39
2023/01/29 12:38:21;;;;;;;;;;;;;;;24.57;19.03;101123.06;5038595;28;1902;-35
2023/01/29 12:40:57;;;;;;;;;;;;;;;27.42;16.58;101122.56;5056157;28;1139;-38
2023/01/29 12:43:37;;;;;;;;;;;;;;;27.52;16.24;101125.91;5026176;28;1107;-32
2023/01/29 12:46:02;;;;;;;;;;;;;;;27.84;16.26;101126.75;5035200;28;1158;-33
2023/01/29 12:48:29;;;;;;;;;;;;;;;28.19;16.28;101128.22;5028106;28;1148;-35
2023/01/29 12:50:54;;;;;;;;;;;;;;;28.40;16.19;101132.09;5053408;28;1128;-31
2023/01/29 12:53:31;;;;;;;;;;;;;;;28.78;16.27;101134.78;5027867;28;1092;-37
2023/01/29 12:56:04;;;;;;;;;;;;;;;28.82;16.12;101124.44;5037936;28;1103;-31
2023/01/29 12:58:34;;;;;;;;;;;;;;;28.96;16.17;101131.72;5030773;28;1985;-38
2023/01/29 13:01:04;;;;;;;;;;;;;;;28.17;17.21;101122.13;5036370;28;1123;-33
2023/01/29 13:03:33;;;;;;;;;;;;;;;27.27;18.25;101123.31;5035324;28;1008;-35
2023/01/29 13:05:59;;;;;;;;;;;;;;;29.29;16.26;101130.53;5036132;28;1068;-34
2023/01/29 13:08:29;;;;;;;;;;;;;;;27.73;17.93;101133.41;5026129;28;1100;-33
2023/01/29 13:10:55;;;;;;;;;;;;;;;27.16;18.47;101139.91;5037614;28;1190;-31
2023/01/29 13:13:23;;;;;;;;;;;;;;;28.20;17.56;101136.13;5056009;28;1130;-32
2023/01/29 13:15:48;;;;;;;;;;;;;;;28.75;16.88;101142.44;5045996;28;1033;-34
2023/01/29 13:18:32;;;;;;;;;;;;;;;28.34;17.48;101149.94;5030662;28;1985;-35
2023/01/29 13:20:58;;;;;;;;;;;;;;;28.03;17.72;101146.22;5057325;28;1222;-32
2023/01/29 13:23:33;;;;;;;;;;;;;;;27.57;18.00;101150.53;5051341;28;893;-37
2023/01/29 13:25:58;;;;;;;;;;;;;;;27.57;18.23;101149.69;5053778;28;1090;-37